sensor_id;sensor_type;location;lat;lon;timestamp;temperature;humidity
27439;DHT22;14887;51.252;7.470;2023-07-30T00:00:39;15.40;1.00
27439;DHT22;14887;51.252;7.470;2023-07-30T00:03:04;15.50;1.00
27439;DHT22;14887;51.252;7.470;2023-07-30T00:05:30;15.50;1.00
27439;DHT22;14887;51.252;7.470;2023-07-30T00:07:56;15.40;1.00
27439;DHT22;14887;51.252;7.470;2023-07-30T00:10:22;15.40;1.00
27439;DHT22;14887;51.252;7.470;2023-07-30T00:12:47;15.30;1.00
27439;DHT22;14887;51.252;7.470;2023-07-30T00:15:13;15.30;1.00
27439;DHT22;14887;51.252;7.470;2023-07-30T00:17:39;15.20;1.00
27439;DHT22;14887;51.252;7.470;2023-07-30T00:20:06;15.10;1.00
27439;DHT22;14887;51.252;7.470;2023-07-30T00:22:33;15.10;1.00
27439;DHT22;14887;51.252;7.470;2023-07-30T00:24:58;15.00;1.00
27439;DHT22;14887;51.252;7.470;2023-07-30T00:27:24;15.00;1.00
27439;DHT22;14887;51.252;7.470;2023-07-30T00:29:50;14.90;1.00
27439;DHT22;14887;51.252;7.470;2023-07-30T00:32:15;14.80;1.00
27439;DHT22;14887;51.252;7.470;2023-07-30T00:34:42;14.80;1.00
27439;DHT22;14887;51.252;7.470;2023-07-30T00:37:08;14.80;1.00
27439;DHT22;14887;51.252;7.470;2023-07-30T00:39:33;14.80;1.00
27439;DHT22;14887;51.252;7.470;2023-07-30T00:41:59;14.70;1.00
27439;DHT22;14887;51.252;7.470;2023-07-30T00:44:25;14.70;1.00
27439;DHT22;14887;51.252;7.470;2023-07-30T00:46:50;14.80;1.00
27439;DHT22;14887;51.252;7.470;2023-07-30T00:49:16;14.70;1.00
27439;DHT22;14887;51.252;7.470;2023-07-30T00:51:42;14.60;1.00
27439;DHT22;14887;51.252;7.470;2023-07-30T00:54:09;14.50;1.00
27439;DHT22;14887;51.252;7.470;2023-07-30T00:56:35;14.50;1.00
27439;DHT22;14887;51.252;7.470;2023-07-30T00:59:01;14.40;1.00
27439;DHT22;14887;51.252;7.470;2023-07-30T01:01:27;14.40;1.00
27439;DHT22;14887;51.252;7.470;2023-07-30T01:03:54;14.30;1.00
27439;DHT22;14887;51.252;7.470;2023-07-30T01:06:19;14.30;1.00
27439;DHT22;14887;51.252;7.470;2023-07-30T01:08:46;14.20;1.00
27439;DHT22;14887;51.252;7.470;2023-07-30T01:11:12;14.20;1.00
27439;DHT22;14887;51.252;7.470;2023-07-30T01:13:39;14.20;1.00
27439;DHT22;14887;51.252;7.470;2023-07-30T01:16:05;14.00;1.00
27439;DHT22;14887;51.252;7.470;2023-07-30T01:18:32;14.00;1.00
27439;DHT22;14887;51.252;7.470;2023-07-30T01:20:58;14.00;1.00
27439;DHT22;14887;51.252;7.470;2023-07-30T01:23:24;14.00;1.00
27439;DHT22;14887;51.252;7.470;2023-07-30T01:26:42;14.00;1.00
27439;DHT22;14887;51.252;7.470;2023-07-30T01:28:49;14.00;1.00
27439;DHT22;14887;51.252;7.470;2023-07-30T01:31:16;14.00;1.00
27439;DHT22;14887;51.252;7.470;2023-07-30T01:33:46;14.00;1.00
27439;DHT22;14887;51.252;7.470;2023-07-30T01:36:15;13.90;1.00
27439;DHT22;14887;51.252;7.470;2023-07-30T01:38:43;13.90;1.00
27439;DHT22;14887;51.252;7.470;2023-07-30T01:41:09;13.90;1.00
27439;DHT22;14887;51.252;7.470;2023-07-30T01:43:35;13.90;1.00
27439;DHT22;14887;51.252;7.470;2023-07-30T01:46:00;13.90;1.00
27439;DHT22;14887;51.252;7.470;2023-07-30T01:48:26;14.00;1.00
27439;DHT22;14887;51.252;7.470;2023-07-30T01:50:52;14.00;1.00
27439;DHT22;14887;51.252;7.470;2023-07-30T01:53:17;14.20;1.00
27439;DHT22;14887;51.252;7.470;2023-07-30T01:55:43;14.20;1.00
27439;DHT22;14887;51.252;7.470;2023-07-30T01:58:09;14.20;1.00
27439;DHT22;14887;51.252;7.470;2023-07-30T02:00:35;14.10;1.00
27439;DHT22;14887;51.252;7.470;2023-07-30T02:03:01;14.10;1.00
27439;DHT22;14887;51.252;7.470;2023-07-30T02:05:26;14.00;1.00
27439;DHT22;14887;51.252;7.470;2023-07-30T02:07:52;14.00;1.00
27439;DHT22;14887;51.252;7.470;2023-07-30T02:10:17;14.00;1.00
27439;DHT22;14887;51.252;7.470;2023-07-30T02:12:43;14.00;1.00
27439;DHT22;14887;51.252;7.470;2023-07-30T02:15:09;14.00;1.00
27439;DHT22;14887;51.252;7.470;2023-07-30T02:17:34;14.10;1.00
27439;DHT22;14887;51.252;7.470;2023-07-30T02:20:00;14.10;1.00
27439;DHT22;14887;51.252;7.470;2023-07-30T02:22:25;14.10;1.00
27439;DHT22;14887;51.252;7.470;2023-07-30T02:24:52;14.10;1.00
27439;DHT22;14887;51.252;7.470;2023-07-30T02:27:17;14.10;1.00
27439;DHT22;14887;51.252;7.470;2023-07-30T02:29:43;14.20;1.00
27439;DHT22;14887;51.252;7.470;2023-07-30T02:32:08;14.20;1.00
27439;DHT22;14887;51.252;7.470;2023-07-30T02:34:34;14.10;1.00
27439;DHT22;14887;51.252;7.470;2023-07-30T02:36:59;14.20;1.00
27439;DHT22;14887;51.252;7.470;2023-07-30T02:39:25;14.30;1.00
27439;DHT22;14887;51.252;7.470;2023-07-30T02:41:50;14.20;1.00
27439;DHT22;14887;51.252;7.470;2023-07-30T02:44:16;14.30;1.00
27439;DHT22;14887;51.252;7.470;2023-07-30T02:46:41;14.20;1.00
27439;DHT22;14887;51.252;7.470;2023-07-30T02:49:07;14.20;1.00
27439;DHT22;14887;51.252;7.470;2023-07-30T02:51:34;14.10;1.00
27439;DHT22;14887;51.252;7.470;2023-07-30T02:54:04;14.00;1.00
27439;DHT22;14887;51.252;7.470;2023-07-30T02:56:30;14.00;1.00
27439;DHT22;14887;51.252;7.470;2023-07-30T02:58:56;13.90;1.00
27439;DHT22;14887;51.252;7.470;2023-07-30T03:01:22;13.90;1.00
27439;DHT22;14887;51.252;7.470;2023-07-30T03:03:47;13.90;1.00
27439;DHT22;14887;51.252;7.470;2023-07-30T03:06:13;13.80;1.00
27439;DHT22;14887;51.252;7.470;2023-07-30T03:08:39;13.80;1.00
27439;DHT22;14887;51.252;7.470;2023-07-30T03:11:05;13.70;1.00
27439;DHT22;14887;51.252;7.470;2023-07-30T03:13:30;13.70;1.00
27439;DHT22;14887;51.252;7.470;2023-07-30T03:15:56;13.60;1.00
27439;DHT22;14887;51.252;7.470;2023-07-30T03:18:22;13.60;1.00
27439;DHT22;14887;51.252;7.470;2023-07-30T03:20:47;13.70;1.00
27439;DHT22;14887;51.252;7.470;2023-07-30T03:23:13;13.60;1.00
27439;DHT22;14887;51.252;7.470;2023-07-30T03:25:38;13.50;1.00
27439;DHT22;14887;51.252;7.470;2023-07-30T03:28:04;13.50;1.00
27439;DHT22;14887;51.252;7.470;2023-07-30T03:30:30;13.60;1.00
27439;DHT22;14887;51.252;7.470;2023-07-30T03:32:56;13.50;1.00
27439;DHT22;14887;51.252;7.470;2023-07-30T03:35:21;13.50;1.00
27439;DHT22;14887;51.252;7.470;2023-07-30T03:37:47;13.50;1.00
27439;DHT22;14887;51.252;7.470;2023-07-30T03:40:12;13.60;1.00
27439;DHT22;14887;51.252;7.470;2023-07-30T03:42:38;13.50;1.00
27439;DHT22;14887;51.252;7.470;2023-07-30T03:45:04;13.60;1.00
27439;DHT22;14887;51.252;7.470;2023-07-30T03:47:30;13.60;1.00
27439;DHT22;14887;51.252;7.470;2023-07-30T03:49:55;13.50;1.00
27439;DHT22;14887;51.252;7.470;2023-07-30T03:52:21;13.50;1.00
27439;DHT22;14887;51.252;7.470;2023-07-30T03:54:47;13.60;1.00
27439;DHT22;14887;51.252;7.470;2023-07-30T03:57:12;13.50;1.00
27439;DHT22;14887;51.252;7.470;2023-07-30T03:59:38;13.50;1.00
27439;DHT22;14887;51.252;7.470;2023-07-30T04:02:03;13.50;1.00
27439;DHT22;14887;51.252;7.470;2023-07-30T04:04:30;13.50;1.00
27439;DHT22;14887;51.252;7.470;2023-07-30T04:06:55;13.50;1.00
27439;DHT22;14887;51.252;7.470;2023-07-30T04:09:21;13.60;1.00
27439;DHT22;14887;51.252;7.470;2023-07-30T04:11:46;13.60;1.00
27439;DHT22;14887;51.252;7.470;2023-07-30T04:14:12;13.60;1.00
27439;DHT22;14887;51.252;7.470;2023-07-30T04:16:37;13.60;1.00
27439;DHT22;14887;51.252;7.470;2023-07-30T04:19:03;13.70;1.00
27439;DHT22;14887;51.252;7.470;2023-07-30T04:21:28;13.80;1.00
27439;DHT22;14887;51.252;7.470;2023-07-30T04:23:54;13.80;1.00
27439;DHT22;14887;51.252;7.470;2023-07-30T04:26:19;14.00;1.00
27439;DHT22;14887;51.252;7.470;2023-07-30T04:28:45;13.90;1.00
27439;DHT22;14887;51.252;7.470;2023-07-30T04:31:10;13.90;1.00
27439;DHT22;14887;51.252;7.470;2023-07-30T04:33:36;13.90;1.00
27439;DHT22;14887;51.252;7.470;2023-07-30T04:36:02;14.00;1.00
27439;DHT22;14887;51.252;7.470;2023-07-30T04:38:27;14.00;1.00
27439;DHT22;14887;51.252;7.470;2023-07-30T04:40:54;14.00;1.00
27439;DHT22;14887;51.252;7.470;2023-07-30T04:43:22;14.10;1.00
27439;DHT22;14887;51.252;7.470;2023-07-30T04:45:48;14.20;1.00
27439;DHT22;14887;51.252;7.470;2023-07-30T04:48:13;14.10;1.00
27439;DHT22;14887;51.252;7.470;2023-07-30T04:50:39;14.10;1.00
27439;DHT22;14887;51.252;7.470;2023-07-30T04:53:07;14.10;1.00
27439;DHT22;14887;51.252;7.470;2023-07-30T04:55:33;14.10;1.00
27439;DHT22;14887;51.252;7.470;2023-07-30T04:57:59;14.20;1.00
27439;DHT22;14887;51.252;7.470;2023-07-30T05:00:24;14.10;1.00
27439;DHT22;14887;51.252;7.470;2023-07-30T05:02:50;14.00;1.00
27439;DHT22;14887;51.252;7.470;2023-07-30T05:05:16;13.90;1.00
27439;DHT22;14887;51.252;7.470;2023-07-30T05:07:41;13.80;1.00
27439;DHT22;14887;51.252;7.470;2023-07-30T05:10:07;13.80;1.00
27439;DHT22;14887;51.252;7.470;2023-07-30T05:12:36;13.80;1.00
27439;DHT22;14887;51.252;7.470;2023-07-30T05:15:01;13.80;1.00
27439;DHT22;14887;51.252;7.470;2023-07-30T05:17:27;13.80;1.00
27439;DHT22;14887;51.252;7.470;2023-07-30T05:19:53;13.90;1.00
27439;DHT22;14887;51.252;7.470;2023-07-30T05:22:18;13.90;1.00
27439;DHT22;14887;51.252;7.470;2023-07-30T05:24:44;14.00;1.00
27439;DHT22;14887;51.252;7.470;2023-07-30T05:27:10;14.10;1.00
27439;DHT22;14887;51.252;7.470;2023-07-30T05:29:35;14.10;1.00
27439;DHT22;14887;51.252;7.470;2023-07-30T05:32:01;14.10;1.00
27439;DHT22;14887;51.252;7.470;2023-07-30T05:34:27;14.10;1.00
27439;DHT22;14887;51.252;7.470;2023-07-30T05:36:52;14.20;1.00
27439;DHT22;14887;51.252;7.470;2023-07-30T05:39:18;14.00;1.00
27439;DHT22;14887;51.252;7.470;2023-07-30T05:41:43;14.00;1.00
27439;DHT22;14887;51.252;7.470;2023-07-30T05:44:09;13.90;1.00
27439;DHT22;14887;51.252;7.470;2023-07-30T05:46:34;13.80;1.00
27439;DHT22;14887;51.252;7.470;2023-07-30T05:49:00;13.70;1.00
27439;DHT22;14887;51.252;7.470;2023-07-30T05:51:25;13.70;1.00
27439;DHT22;14887;51.252;7.470;2023-07-30T05:53:51;13.70;1.00
27439;DHT22;14887;51.252;7.470;2023-07-30T05:56:16;13.70;1.00
27439;DHT22;14887;51.252;7.470;2023-07-30T05:58:44;13.70;1.00
27439;DHT22;14887;51.252;7.470;2023-07-30T06:01:09;13.70;1.00
27439;DHT22;14887;51.252;7.470;2023-07-30T06:03:37;13.70;1.00
27439;DHT22;14887;51.252;7.470;2023-07-30T06:06:02;13.60;1.00
27439;DHT22;14887;51.252;7.470;2023-07-30T06:08:28;13.60;1.00
27439;DHT22;14887;51.252;7.470;2023-07-30T06:11:00;13.50;1.00
27439;DHT22;14887;51.252;7.470;2023-07-30T06:13:26;13.60;1.00
27439;DHT22;14887;51.252;7.470;2023-07-30T06:15:51;13.60;1.00
27439;DHT22;14887;51.252;7.470;2023-07-30T06:18:17;13.60;1.00
27439;DHT22;14887;51.252;7.470;2023-07-30T06:20:42;13.60;1.00
27439;DHT22;14887;51.252;7.470;2023-07-30T06:23:08;13.60;1.00
27439;DHT22;14887;51.252;7.470;2023-07-30T06:25:33;13.70;1.00
27439;DHT22;14887;51.252;7.470;2023-07-30T06:27:59;13.70;1.00
27439;DHT22;14887;51.252;7.470;2023-07-30T06:30:24;13.60;1.00
27439;DHT22;14887;51.252;7.470;2023-07-30T06:32:50;13.60;1.00
27439;DHT22;14887;51.252;7.470;2023-07-30T06:35:16;13.70;1.00
27439;DHT22;14887;51.252;7.470;2023-07-30T06:37:41;13.60;1.00
27439;DHT22;14887;51.252;7.470;2023-07-30T06:40:07;13.50;1.00
27439;DHT22;14887;51.252;7.470;2023-07-30T06:42:33;13.50;1.00
27439;DHT22;14887;51.252;7.470;2023-07-30T06:44:59;13.40;1.00
27439;DHT22;14887;51.252;7.470;2023-07-30T06:47:24;13.30;1.00
27439;DHT22;14887;51.252;7.470;2023-07-30T06:49:50;13.20;1.00
27439;DHT22;14887;51.252;7.470;2023-07-30T06:52:16;13.20;1.00
27439;DHT22;14887;51.252;7.470;2023-07-30T06:54:41;13.20;1.00
27439;DHT22;14887;51.252;7.470;2023-07-30T06:57:07;13.20;1.00
27439;DHT22;14887;51.252;7.470;2023-07-30T06:59:33;13.40;1.00
27439;DHT22;14887;51.252;7.470;2023-07-30T07:01:59;13.50;1.00
27439;DHT22;14887;51.252;7.470;2023-07-30T07:04:25;13.60;1.00
27439;DHT22;14887;51.252;7.470;2023-07-30T07:06:51;13.60;1.00
27439;DHT22;14887;51.252;7.470;2023-07-30T07:09:16;13.70;1.00
27439;DHT22;14887;51.252;7.470;2023-07-30T07:11:43;13.50;1.00
27439;DHT22;14887;51.252;7.470;2023-07-30T07:14:09;13.50;1.00
27439;DHT22;14887;51.252;7.470;2023-07-30T07:16:34;13.50;1.00
27439;DHT22;14887;51.252;7.470;2023-07-30T07:19:00;13.40;1.00
27439;DHT22;14887;51.252;7.470;2023-07-30T07:21:25;13.30;1.00
27439;DHT22;14887;51.252;7.470;2023-07-30T07:23:52;13.30;1.00
27439;DHT22;14887;51.252;7.470;2023-07-30T07:26:17;13.30;1.00
27439;DHT22;14887;51.252;7.470;2023-07-30T07:28:43;13.30;1.00
27439;DHT22;14887;51.252;7.470;2023-07-30T07:31:08;13.30;1.00
27439;DHT22;14887;51.252;7.470;2023-07-30T07:33:34;13.30;1.00
27439;DHT22;14887;51.252;7.470;2023-07-30T07:36:07;13.30;1.00
27439;DHT22;14887;51.252;7.470;2023-07-30T07:38:33;13.30;1.00
27439;DHT22;14887;51.252;7.470;2023-07-30T07:40:59;13.30;1.00
27439;DHT22;14887;51.252;7.470;2023-07-30T07:43:25;13.30;1.00
27439;DHT22;14887;51.252;7.470;2023-07-30T07:45:51;13.30;1.00
27439;DHT22;14887;51.252;7.470;2023-07-30T07:48:17;13.40;1.00
27439;DHT22;14887;51.252;7.470;2023-07-30T07:50:42;13.40;1.00
27439;DHT22;14887;51.252;7.470;2023-07-30T07:53:08;13.40;1.00
27439;DHT22;14887;51.252;7.470;2023-07-30T07:55:35;13.40;1.00
27439;DHT22;14887;51.252;7.470;2023-07-30T07:58:00;13.50;1.00
27439;DHT22;14887;51.252;7.470;2023-07-30T08:00:26;13.50;1.00
27439;DHT22;14887;51.252;7.470;2023-07-30T08:02:51;13.60;1.00
27439;DHT22;14887;51.252;7.470;2023-07-30T08:05:17;13.60;1.00
27439;DHT22;14887;51.252;7.470;2023-07-30T08:07:45;13.60;1.00
27439;DHT22;14887;51.252;7.470;2023-07-30T08:10:11;13.70;1.00
27439;DHT22;14887;51.252;7.470;2023-07-30T08:12:37;13.70;1.00
27439;DHT22;14887;51.252;7.470;2023-07-30T08:15:03;13.70;1.00
27439;DHT22;14887;51.252;7.470;2023-07-30T08:17:28;13.70;1.00
27439;DHT22;14887;51.252;7.470;2023-07-30T08:19:54;13.70;1.00
27439;DHT22;14887;51.252;7.470;2023-07-30T08:22:20;13.80;1.00
27439;DHT22;14887;51.252;7.470;2023-07-30T08:24:45;13.90;1.00
27439;DHT22;14887;51.252;7.470;2023-07-30T08:27:11;13.90;1.00
27439;DHT22;14887;51.252;7.470;2023-07-30T08:29:37;14.00;1.00
27439;DHT22;14887;51.252;7.470;2023-07-30T08:32:03;14.20;1.00
27439;DHT22;14887;51.252;7.470;2023-07-30T08:34:28;14.20;1.00
27439;DHT22;14887;51.252;7.470;2023-07-30T08:36:54;14.30;1.00
27439;DHT22;14887;51.252;7.470;2023-07-30T08:39:19;14.30;1.00
27439;DHT22;14887;51.252;7.470;2023-07-30T08:41:45;14.30;1.00
27439;DHT22;14887;51.252;7.470;2023-07-30T08:44:11;14.30;1.00
27439;DHT22;14887;51.252;7.470;2023-07-30T08:46:37;14.40;1.00
27439;DHT22;14887;51.252;7.470;2023-07-30T08:49:03;14.40;1.00
27439;DHT22;14887;51.252;7.470;2023-07-30T08:51:29;14.50;1.00
27439;DHT22;14887;51.252;7.470;2023-07-30T08:53:57;14.50;1.00
27439;DHT22;14887;51.252;7.470;2023-07-30T08:56:23;14.50;1.00
27439;DHT22;14887;51.252;7.470;2023-07-30T08:58:50;14.80;1.00
27439;DHT22;14887;51.252;7.470;2023-07-30T09:01:18;14.80;1.00
27439;DHT22;14887;51.252;7.470;2023-07-30T09:03:44;14.90;1.00
27439;DHT22;14887;51.252;7.470;2023-07-30T09:06:10;14.90;1.00
27439;DHT22;14887;51.252;7.470;2023-07-30T09:08:35;15.10;1.00
27439;DHT22;14887;51.252;7.470;2023-07-30T09:11:08;15.20;1.00
27439;DHT22;14887;51.252;7.470;2023-07-30T09:13:38;15.40;1.00
27439;DHT22;14887;51.252;7.470;2023-07-30T09:16:12;15.40;1.00
27439;DHT22;14887;51.252;7.470;2023-07-30T09:18:42;15.30;1.00
27439;DHT22;14887;51.252;7.470;2023-07-30T09:21:07;15.50;1.00
27439;DHT22;14887;51.252;7.470;2023-07-30T09:23:42;15.90;1.00
27439;DHT22;14887;51.252;7.470;2023-07-30T09:26:08;16.30;1.00
27439;DHT22;14887;51.252;7.470;2023-07-30T09:28:34;16.60;1.00
27439;DHT22;14887;51.252;7.470;2023-07-30T09:31:04;16.70;99.90
27439;DHT22;14887;51.252;7.470;2023-07-30T09:33:31;16.70;99.90
27439;DHT22;14887;51.252;7.470;2023-07-30T09:35:57;16.70;99.90
27439;DHT22;14887;51.252;7.470;2023-07-30T09:38:23;16.70;99.90
27439;DHT22;14887;51.252;7.470;2023-07-30T09:40:49;16.70;99.90
27439;DHT22;14887;51.252;7.470;2023-07-30T09:43:15;17.50;99.90
27439;DHT22;14887;51.252;7.470;2023-07-30T09:45:45;18.70;99.90
27439;DHT22;14887;51.252;7.470;2023-07-30T09:48:12;19.10;1.00
27439;DHT22;14887;51.252;7.470;2023-07-30T09:50:38;18.60;99.90
27439;DHT22;14887;51.252;7.470;2023-07-30T09:53:04;18.10;1.00
27439;DHT22;14887;51.252;7.470;2023-07-30T09:55:30;17.60;1.00
27439;DHT22;14887;51.252;7.470;2023-07-30T09:57:56;17.30;99.90
27439;DHT22;14887;51.252;7.470;2023-07-30T10:00:21;16.80;1.00
27439;DHT22;14887;51.252;7.470;2023-07-30T10:02:49;16.40;99.90
27439;DHT22;14887;51.252;7.470;2023-07-30T10:05:19;16.00;1.00
27439;DHT22;14887;51.252;7.470;2023-07-30T10:07:59;15.80;1.00
27439;DHT22;14887;51.252;7.470;2023-07-30T10:10:28;15.50;1.00
27439;DHT22;14887;51.252;7.470;2023-07-30T10:12:55;15.50;1.00
27439;DHT22;14887;51.252;7.470;2023-07-30T10:15:23;16.60;99.90
27439;DHT22;14887;51.252;7.470;2023-07-30T10:17:52;18.10;99.90
27439;DHT22;14887;51.252;7.470;2023-07-30T10:22:51;18.70;99.90
27439;DHT22;14887;51.252;7.470;2023-07-30T10:25:21;18.20;98.60
27439;DHT22;14887;51.252;7.470;2023-07-30T10:27:49;17.80;99.90
27439;DHT22;14887;51.252;7.470;2023-07-30T10:30:17;17.40;1.00
27439;DHT22;14887;51.252;7.470;2023-07-30T10:35:40;18.80;1.00
27439;DHT22;14887;51.252;7.470;2023-07-30T10:38:20;18.90;1.00
27439;DHT22;14887;51.252;7.470;2023-07-30T10:41:09;19.20;99.90
27439;DHT22;14887;51.252;7.470;2023-07-30T10:43:37;20.40;99.90
27439;DHT22;14887;51.252;7.470;2023-07-30T10:46:04;21.30;35.70
27439;DHT22;14887;51.252;7.470;2023-07-30T10:48:34;21.10;1.00
27439;DHT22;14887;51.252;7.470;2023-07-30T10:51:01;21.10;1.00
27439;DHT22;14887;51.252;7.470;2023-07-30T10:53:27;21.30;1.00
27439;DHT22;14887;51.252;7.470;2023-07-30T10:55:53;21.20;1.00
27439;DHT22;14887;51.252;7.470;2023-07-30T10:58:20;21.30;1.00
27439;DHT22;14887;51.252;7.470;2023-07-30T11:00:46;21.70;1.00
27439;DHT22;14887;51.252;7.470;2023-07-30T11:03:13;21.10;1.00
27439;DHT22;14887;51.252;7.470;2023-07-30T11:05:39;20.10;1.00
27439;DHT22;14887;51.252;7.470;2023-07-30T11:08:04;19.50;1.00
27439;DHT22;14887;51.252;7.470;2023-07-30T11:10:30;19.50;1.00
27439;DHT22;14887;51.252;7.470;2023-07-30T11:12:57;19.50;1.00
27439;DHT22;14887;51.252;7.470;2023-07-30T11:15:23;19.50;10.10
27439;DHT22;14887;51.252;7.470;2023-07-30T11:17:51;19.60;6.00
27439;DHT22;14887;51.252;7.470;2023-07-30T11:20:24;19.50;9.00
27439;DHT22;14887;51.252;7.470;2023-07-30T11:22:53;18.80;1.00
27439;DHT22;14887;51.252;7.470;2023-07-30T11:25:19;18.70;99.90
27439;DHT22;14887;51.252;7.470;2023-07-30T11:27:49;18.80;1.00
27439;DHT22;14887;51.252;7.470;2023-07-30T11:30:15;19.00;99.90
27439;DHT22;14887;51.252;7.470;2023-07-30T11:32:42;19.40;94.60
27439;DHT22;14887;51.252;7.470;2023-07-30T11:35:08;20.10;11.90
27439;DHT22;14887;51.252;7.470;2023-07-30T11:37:34;20.90;1.00
27439;DHT22;14887;51.252;7.470;2023-07-30T11:40:00;21.00;1.00
27439;DHT22;14887;51.252;7.470;2023-07-30T11:42:26;20.80;1.00
27439;DHT22;14887;51.252;7.470;2023-07-30T11:44:55;20.70;1.00
27439;DHT22;14887;51.252;7.470;2023-07-30T11:47:22;20.60;1.00
27439;DHT22;14887;51.252;7.470;2023-07-30T11:49:57;20.10;1.00
27439;DHT22;14887;51.252;7.470;2023-07-30T11:52:23;19.50;1.00
27439;DHT22;14887;51.252;7.470;2023-07-30T11:55:00;19.00;1.00
27439;DHT22;14887;51.252;7.470;2023-07-30T11:57:34;18.50;99.90
27439;DHT22;14887;51.252;7.470;2023-07-30T11:59:59;18.20;1.00
27439;DHT22;14887;51.252;7.470;2023-07-30T12:02:25;18.30;99.90
27439;DHT22;14887;51.252;7.470;2023-07-30T12:04:51;18.60;99.90
27439;DHT22;14887;51.252;7.470;2023-07-30T12:07:23;19.30;99.90
27439;DHT22;14887;51.252;7.470;2023-07-30T12:09:49;20.00;1.00
27439;DHT22;14887;51.252;7.470;2023-07-30T12:12:15;20.40;1.00
27439;DHT22;14887;51.252;7.470;2023-07-30T12:17:15;19.90;1.00
27439;DHT22;14887;51.252;7.470;2023-07-30T12:19:43;19.60;1.00
27439;DHT22;14887;51.252;7.470;2023-07-30T12:22:09;19.50;38.80
27439;DHT22;14887;51.252;7.470;2023-07-30T12:24:34;19.60;99.90
27439;DHT22;14887;51.252;7.470;2023-07-30T12:27:01;19.30;99.90
27439;DHT22;14887;51.252;7.470;2023-07-30T12:29:27;19.20;99.90
27439;DHT22;14887;51.252;7.470;2023-07-30T12:31:52;19.50;99.90
27439;DHT22;14887;51.252;7.470;2023-07-30T12:34:23;19.90;99.90
27439;DHT22;14887;51.252;7.470;2023-07-30T12:36:49;20.00;1.00
27439;DHT22;14887;51.252;7.470;2023-07-30T12:39:14;19.50;9.40
27439;DHT22;14887;51.252;7.470;2023-07-30T12:41:40;18.90;99.90
27439;DHT22;14887;51.252;7.470;2023-07-30T12:44:05;18.50;99.90
27439;DHT22;14887;51.252;7.470;2023-07-30T12:46:31;18.30;1.00
27439;DHT22;14887;51.252;7.470;2023-07-30T12:48:58;18.00;1.00
27439;DHT22;14887;51.252;7.470;2023-07-30T12:51:29;17.80;1.00
27439;DHT22;14887;51.252;7.470;2023-07-30T12:53:55;18.00;1.00
27439;DHT22;14887;51.252;7.470;2023-07-30T12:56:20;18.40;1.00
27439;DHT22;14887;51.252;7.470;2023-07-30T12:58:46;18.70;99.90
27439;DHT22;14887;51.252;7.470;2023-07-30T13:01:11;18.60;99.90
27439;DHT22;14887;51.252;7.470;2023-07-30T13:03:40;18.30;99.90
27439;DHT22;14887;51.252;7.470;2023-07-30T13:06:10;18.10;99.90
27439;DHT22;14887;51.252;7.470;2023-07-30T13:08:37;18.00;1.00
27439;DHT22;14887;51.252;7.470;2023-07-30T13:11:02;18.20;1.00
27439;DHT22;14887;51.252;7.470;2023-07-30T13:13:28;19.70;41.40
27439;DHT22;14887;51.252;7.470;2023-07-30T13:15:53;20.80;1.00
27439;DHT22;14887;51.252;7.470;2023-07-30T13:18:23;20.70;1.00
27439;DHT22;14887;51.252;7.470;2023-07-30T13:20:48;20.10;1.00
27439;DHT22;14887;51.252;7.470;2023-07-30T13:23:15;20.00;1.00
27439;DHT22;14887;51.252;7.470;2023-07-30T13:25:41;20.20;1.00
27439;DHT22;14887;51.252;7.470;2023-07-30T13:28:06;20.70;1.00
27439;DHT22;14887;51.252;7.470;2023-07-30T13:30:32;21.50;1.00
27439;DHT22;14887;51.252;7.470;2023-07-30T13:32:57;22.50;1.00
27439;DHT22;14887;51.252;7.470;2023-07-30T13:35:23;22.80;1.00
27439;DHT22;14887;51.252;7.470;2023-07-30T13:37:49;22.30;1.00
27439;DHT22;14887;51.252;7.470;2023-07-30T13:40:14;22.90;1.00
27439;DHT22;14887;51.252;7.470;2023-07-30T13:42:40;23.30;99.90
27439;DHT22;14887;51.252;7.470;2023-07-30T13:45:06;23.40;99.90
27439;DHT22;14887;51.252;7.470;2023-07-30T13:47:31;23.80;99.90
27439;DHT22;14887;51.252;7.470;2023-07-30T13:49:57;24.00;99.90
27439;DHT22;14887;51.252;7.470;2023-07-30T13:52:22;24.40;99.90
27439;DHT22;14887;51.252;7.470;2023-07-30T13:54:48;24.70;99.90
27439;DHT22;14887;51.252;7.470;2023-07-30T13:57:21;25.20;99.90
27439;DHT22;14887;51.252;7.470;2023-07-30T13:59:48;25.50;99.90
27439;DHT22;14887;51.252;7.470;2023-07-30T14:02:13;24.90;99.90
27439;DHT22;14887;51.252;7.470;2023-07-30T14:04:39;24.60;99.90
27439;DHT22;14887;51.252;7.470;2023-07-30T14:07:04;25.10;99.90
27439;DHT22;14887;51.252;7.470;2023-07-30T14:09:30;24.60;99.90
27439;DHT22;14887;51.252;7.470;2023-07-30T14:11:58;23.40;99.90
27439;DHT22;14887;51.252;7.470;2023-07-30T14:14:24;23.30;99.90
27439;DHT22;14887;51.252;7.470;2023-07-30T14:16:52;23.20;99.90
27439;DHT22;14887;51.252;7.470;2023-07-30T14:19:17;22.60;99.90
27439;DHT22;14887;51.252;7.470;2023-07-30T14:21:42;21.90;99.90
27439;DHT22;14887;51.252;7.470;2023-07-30T14:24:10;23.00;99.90
27439;DHT22;14887;51.252;7.470;2023-07-30T14:26:35;23.00;99.90
27439;DHT22;14887;51.252;7.470;2023-07-30T14:29:01;23.20;99.90
27439;DHT22;14887;51.252;7.470;2023-07-30T14:31:27;22.70;99.90
27439;DHT22;14887;51.252;7.470;2023-07-30T14:33:53;22.20;99.90
27439;DHT22;14887;51.252;7.470;2023-07-30T14:36:18;23.10;99.90
27439;DHT22;14887;51.252;7.470;2023-07-30T14:38:44;23.20;99.90
27439;DHT22;14887;51.252;7.470;2023-07-30T14:41:09;23.80;99.90
27439;DHT22;14887;51.252;7.470;2023-07-30T14:43:37;24.30;99.90
27439;DHT22;14887;51.252;7.470;2023-07-30T14:46:02;24.10;99.90
27439;DHT22;14887;51.252;7.470;2023-07-30T14:48:28;24.40;99.90
27439;DHT22;14887;51.252;7.470;2023-07-30T14:50:54;24.30;99.90
27439;DHT22;14887;51.252;7.470;2023-07-30T14:53:19;25.10;99.90
27439;DHT22;14887;51.252;7.470;2023-07-30T14:55:45;24.40;99.90
27439;DHT22;14887;51.252;7.470;2023-07-30T14:58:10;23.00;99.90
27439;DHT22;14887;51.252;7.470;2023-07-30T15:00:37;22.10;99.90
27439;DHT22;14887;51.252;7.470;2023-07-30T15:03:02;21.10;99.90
27439;DHT22;14887;51.252;7.470;2023-07-30T15:05:30;20.60;99.90
27439;DHT22;14887;51.252;7.470;2023-07-30T15:07:56;20.50;1.00
27439;DHT22;14887;51.252;7.470;2023-07-30T15:10:21;20.40;1.00
27439;DHT22;14887;51.252;7.470;2023-07-30T15:12:47;20.70;1.00
27439;DHT22;14887;51.252;7.470;2023-07-30T15:15:13;20.70;1.00
27439;DHT22;14887;51.252;7.470;2023-07-30T15:17:38;20.40;1.00
27439;DHT22;14887;51.252;7.470;2023-07-30T15:20:04;20.10;1.00
27439;DHT22;14887;51.252;7.470;2023-07-30T15:22:30;19.90;1.00
27439;DHT22;14887;51.252;7.470;2023-07-30T15:24:55;19.60;1.00
27439;DHT22;14887;51.252;7.470;2023-07-30T15:27:21;19.50;1.00
27439;DHT22;14887;51.252;7.470;2023-07-30T15:29:46;19.80;1.00
27439;DHT22;14887;51.252;7.470;2023-07-30T15:32:12;20.10;1.00
27439;DHT22;14887;51.252;7.470;2023-07-30T15:34:38;20.40;1.00
27439;DHT22;14887;51.252;7.470;2023-07-30T15:37:03;20.40;1.00
27439;DHT22;14887;51.252;7.470;2023-07-30T15:39:29;20.30;1.00
27439;DHT22;14887;51.252;7.470;2023-07-30T15:41:56;20.20;1.00
27439;DHT22;14887;51.252;7.470;2023-07-30T15:44:22;20.10;1.00